WetterOnline ( https://www.wetteronline.de )

Wetter aktuell Friedberg

Aktuelles Wetter: Augsburg/Mühlhausen (477m)

6-stündlich | Neueste Meldungen
Ortszeit Temperatur Wetter
Mi, 19.06. 8:00 18.0° C bedeckt
Mi, 19.06. 2:00 18.2° C bedeckt
Di, 18.06. 20:00 22.2° C wolkig
Di, 18.06. 14:00 25.7° C wolkenlos
Di, 18.06. 8:00 19.5° C wolkenlos
Di, 18.06. 2:00 13.1° C wolkenlos
Mo, 17.06. 20:00 22.8° C leicht bewölkt
Mo, 17.06. 14:00 21.9° C leicht bewölkt
Ortszeit Temperatur Wetter
Mi, 19.06. 10:30 23.9° C wolkenlos
Mi, 19.06. 10:20 23.9° C wolkenlos
Mi, 19.06. 10:10 23.8° C fast wolkenlos
Mi, 19.06. 10:00 22.8° C fast wolkenlos
Mi, 19.06. 9:50 22.8° C fast wolkenlos
Mi, 19.06. 9:40 22.8° C fast wolkenlos
Mi, 19.06. 9:30 21.7° C leicht bewölkt
Mi, 19.06. 9:00 20.1° C wolkig
Mi, 19.06. 8:30 19.2° C bedeckt
Mi, 19.06. 8:00 18.0° C bedeckt
Mi, 19.06. 7:30 17.7° C bedeckt
Ortszeit Relative Feuchte Sichtweite
Mi, 19.06. 8:00 76% 30 km
Mi, 19.06. 2:00 75% 45 km
Di, 18.06. 20:00 65% 28 km
Di, 18.06. 14:00 53% 24 km
Di, 18.06. 8:00 72% 12 km
Di, 18.06. 2:00 96% 10 km
Mo, 17.06. 20:00 58% 30 km
Mo, 17.06. 14:00 59% 17 km
Ortszeit Relative Feuchte Sichtweite
Mi, 19.06. 10:30 58% 29 km
Mi, 19.06. 10:20 58% -
Mi, 19.06. 10:10 49% -
Mi, 19.06. 10:00 55% 45 km
Mi, 19.06. 9:50 55% -
Mi, 19.06. 9:40 60% -
Mi, 19.06. 9:30 61% 35 km
Mi, 19.06. 9:00 68% 45 km
Mi, 19.06. 8:30 72% 21 km
Mi, 19.06. 8:00 76% 30 km
Mi, 19.06. 7:30 78% 30 km
Ortszeit Niederschlagsmenge Niederschlagsart
Mi, 19.06. 8:00 0.0 l/m2 in 12 Std. -
Mi, 19.06. 2:00 0.0 l/m2 in 6 Std. -
Di, 18.06. 20:00 0.0 l/m2 in 12 Std. -
Di, 18.06. 14:00 0.0 l/m2 in 6 Std. -
Di, 18.06. 8:00 0.0 l/m2 in 12 Std. -
Di, 18.06. 2:00 0.0 l/m2 in 6 Std. -
Mo, 17.06. 20:00 0.0 l/m2 in 12 Std. -
Mo, 17.06. 14:00 0.0 l/m2 in 6 Std. -
Ortszeit Niederschlagsmenge Niederschlagsart
Mi, 19.06. 10:30 0.0 l/m2 in 1 Std. -
Mi, 19.06. 10:20 keine Meldung -
Mi, 19.06. 10:10 keine Meldung -
Mi, 19.06. 10:00 0.0 l/m2 in 1 Std. -
Mi, 19.06. 9:50 keine Meldung -
Mi, 19.06. 9:40 keine Meldung -
Mi, 19.06. 9:30 0.0 l/m2 in 1 Std. -
Mi, 19.06. 9:00 0.0 l/m2 in 1 Std. -
Mi, 19.06. 8:30 0.0 l/m2 in 1 Std. -
Mi, 19.06. 8:00 0.0 l/m2 in 1 Std. -
Mi, 19.06. 7:30 0.0 l/m2 in 1 Std. -
Ortszeit Stärke Spitze Richtung
km/h Bft. km/h Grad Sektor
Mi, 19.06. 8:00 9 2 13 180° S
Mi, 19.06. 2:00 4 1 25 260° W
Di, 18.06. 20:00 6 1 19 40° NO
Di, 18.06. 14:00 7 2 14 150° SO
Di, 18.06. 8:00 0 0 7 - -
Di, 18.06. 2:00 4 1 25 270° W
Mo, 17.06. 20:00 11 2 32 90° O
Mo, 17.06. 14:00 18 3 29 70° O
Ortszeit Stärke Spitze Richtung
km/h Bft. km/h Grad Sektor
Mi, 19.06. 10:30 7 2 11 130° SO
Mi, 19.06. 10:20 7 2 - 130° SO
Mi, 19.06. 10:10 6 1 - 220° SW
Mi, 19.06. 10:00 7 2 11 210° SW
Mi, 19.06. 9:50 7 2 - 210° SW
Mi, 19.06. 9:40 6 1 - 210° SW
Mi, 19.06. 9:30 4 1 11 180° S
Mi, 19.06. 9:00 7 2 14 180° S
Mi, 19.06. 8:30 9 2 13 160° S
Mi, 19.06. 8:00 9 2 13 180° S
Mi, 19.06. 7:30 7 2 11 170° S
Ortszeit Untergrenze Bedeckung Gattung
total tief tief mittel hoch
Mi, 19.06. 8:00 4200 m 8/8 8/8 - - -
Mi, 19.06. 2:00 3000 m 8/8 8/8 - - -
Di, 18.06. 20:00 9000 m 8/8 0/8 - - -
Di, 18.06. 14:00 - 0/8 0/8 - - -
Di, 18.06. 8:00 - 0/8 0/8 - - -
Di, 18.06. 2:00 9000 m 0/8 0/8 - - -
Mo, 17.06. 20:00 9000 m 6/8 0/8 - - -
Mo, 17.06. 14:00 1290 m 3/8 3/8 - - -
Ortszeit Bedeckungsgrad in Achtel und Wolkenuntergrenze
Mi, 19.06. 10:30 keine Wolken
Mi, 19.06. 10:20 keine Wolken
Mi, 19.06. 10:10 1(7500m)
Mi, 19.06. 10:00 2(7500m)
Mi, 19.06. 9:50 2(7500m)
Mi, 19.06. 9:40 1(7200m)
Mi, 19.06. 9:30 6(7200m)
Mi, 19.06. 9:00 6(4800m) 8(6600m) 8(8100m)
Mi, 19.06. 8:30 8(4500m) 8(5100m) 8(6300m)
Mi, 19.06. 8:00 8(4200m) 8(6600m)
Mi, 19.06. 7:30 8(4500m) 8(5700m)
Ortszeit Luftdruck NN (hPa) Tendenz (hPa in 3 Std.)
Mi, 19.06. 8:00 1013 + 0,1
Mi, 19.06. 2:00 1013 - 0,2
Di, 18.06. 20:00 1012 - 0,3
Di, 18.06. 14:00 1013 - 1,1
Di, 18.06. 8:00 1016 + 0,2
Di, 18.06. 2:00 1018 - 0,2
Mo, 17.06. 20:00 1016 - 0,6
Mo, 17.06. 14:00 1018 - 1,0
Ortszeit Luftdruck NN (hPa) Tendenz (hPa in 3 Std.)
Mi, 19.06. 10:30 1011 - 0,6
Mi, 19.06. 10:20 1011 keine Meldung
Mi, 19.06. 10:10 1011 keine Meldung
Mi, 19.06. 10:00 1011 - 0,5
Mi, 19.06. 9:50 1011 keine Meldung
Mi, 19.06. 9:40 1011 keine Meldung
Mi, 19.06. 9:30 1012 - 0,1
Mi, 19.06. 9:00 1012 + 0,2
Mi, 19.06. 8:30 1012 + 0,1
Mi, 19.06. 8:00 1013 + 0,1
Mi, 19.06. 7:30 1013 - 0,1
Ortszeit Schneehöhe (cm)
Mi, 19.06. 8:00 -
Mi, 19.06. 2:00 -
Di, 18.06. 20:00 -
Di, 18.06. 14:00 -
Di, 18.06. 8:00 -
Di, 18.06. 2:00 -
Mo, 17.06. 20:00 -
Mo, 17.06. 14:00 -
Ortszeit Schneehöhe (cm)
Mi, 19.06. 10:30 -
Mi, 19.06. 10:20 -
Mi, 19.06. 10:10 -
Mi, 19.06. 10:00 -
Mi, 19.06. 9:50 -
Mi, 19.06. 9:40 -
Mi, 19.06. 9:30 -
Mi, 19.06. 9:00 -
Mi, 19.06. 8:30 -
Mi, 19.06. 8:00 -
Mi, 19.06. 7:30 -
Link zu dieser Seite / Seite empfehlen

Das Wetter in ...